sensor_id;sensor_type;location;lat;lon;timestamp;temperature;humidity
20714;DHT22;10518;50.742;4.226;2023-03-17T00:00:28;12.10;99.90
20714;DHT22;10518;50.742;4.226;2023-03-17T00:02:54;11.90;99.90
20714;DHT22;10518;50.742;4.226;2023-03-17T00:05:25;11.70;99.90
20714;DHT22;10518;50.742;4.226;2023-03-17T00:07:52;12.00;99.90
20714;DHT22;10518;50.742;4.226;2023-03-17T00:10:24;12.00;99.90
20714;DHT22;10518;50.742;4.226;2023-03-17T00:12:51;12.10;99.90
20714;DHT22;10518;50.742;4.226;2023-03-17T00:15:18;12.20;99.90
20714;DHT22;10518;50.742;4.226;2023-03-17T00:17:45;12.00;99.90
20714;DHT22;10518;50.742;4.226;2023-03-17T00:20:25;12.00;99.90
20714;DHT22;10518;50.742;4.226;2023-03-17T00:22:52;11.90;99.90
20714;DHT22;10518;50.742;4.226;2023-03-17T00:25:21;11.60;99.90
20714;DHT22;10518;50.742;4.226;2023-03-17T00:27:48;11.80;99.90
20714;DHT22;10518;50.742;4.226;2023-03-17T00:30:15;11.90;99.90
20714;DHT22;10518;50.742;4.226;2023-03-17T00:32:41;11.70;99.90
20714;DHT22;10518;50.742;4.226;2023-03-17T00:35:21;11.70;99.90
20714;DHT22;10518;50.742;4.226;2023-03-17T00:37:49;11.70;99.90
20714;DHT22;10518;50.742;4.226;2023-03-17T00:40:19;11.70;99.90
20714;DHT22;10518;50.742;4.226;2023-03-17T00:42:46;11.80;99.90
20714;DHT22;10518;50.742;4.226;2023-03-17T00:45:12;12.00;99.90
20714;DHT22;10518;50.742;4.226;2023-03-17T00:47:38;12.00;99.90
20714;DHT22;10518;50.742;4.226;2023-03-17T00:50:05;11.90;99.90
20714;DHT22;10518;50.742;4.226;2023-03-17T00:52:31;11.70;99.90
20714;DHT22;10518;50.742;4.226;2023-03-17T00:54:57;11.90;99.90
20714;DHT22;10518;50.742;4.226;2023-03-17T00:57:23;12.00;99.90
20714;DHT22;10518;50.742;4.226;2023-03-17T00:59:49;12.00;99.90
20714;DHT22;10518;50.742;4.226;2023-03-17T01:02:14;12.00;99.90
20714;DHT22;10518;50.742;4.226;2023-03-17T01:04:40;12.00;99.90
20714;DHT22;10518;50.742;4.226;2023-03-17T01:07:08;11.90;99.90
20714;DHT22;10518;50.742;4.226;2023-03-17T01:09:36;11.90;99.90
20714;DHT22;10518;50.742;4.226;2023-03-17T01:12:02;11.90;99.90
20714;DHT22;10518;50.742;4.226;2023-03-17T01:14:28;11.90;99.90
20714;DHT22;10518;50.742;4.226;2023-03-17T01:16:54;11.80;99.90
20714;DHT22;10518;50.742;4.226;2023-03-17T01:19:19;11.80;99.90
20714;DHT22;10518;50.742;4.226;2023-03-17T01:21:45;11.80;99.90
20714;DHT22;10518;50.742;4.226;2023-03-17T01:24:12;11.80;99.90
20714;DHT22;10518;50.742;4.226;2023-03-17T01:26:39;11.50;99.90
20714;DHT22;10518;50.742;4.226;2023-03-17T01:29:05;11.60;99.90
20714;DHT22;10518;50.742;4.226;2023-03-17T01:31:32;11.70;99.90
20714;DHT22;10518;50.742;4.226;2023-03-17T01:33:58;11.80;99.90
20714;DHT22;10518;50.742;4.226;2023-03-17T01:36:24;11.90;99.90
20714;DHT22;10518;50.742;4.226;2023-03-17T01:38:50;11.90;99.90
20714;DHT22;10518;50.742;4.226;2023-03-17T01:41:18;11.90;99.90
20714;DHT22;10518;50.742;4.226;2023-03-17T01:43:47;11.70;99.90
20714;DHT22;10518;50.742;4.226;2023-03-17T01:46:20;11.50;99.90
20714;DHT22;10518;50.742;4.226;2023-03-17T01:51:27;11.80;99.90
20714;DHT22;10518;50.742;4.226;2023-03-17T01:53:55;11.90;99.90
20714;DHT22;10518;50.742;4.226;2023-03-17T01:56:21;12.00;99.90
20714;DHT22;10518;50.742;4.226;2023-03-17T01:58:50;12.00;99.90
20714;DHT22;10518;50.742;4.226;2023-03-17T02:01:16;11.70;99.90
20714;DHT22;10518;50.742;4.226;2023-03-17T02:03:42;11.80;99.90
20714;DHT22;10518;50.742;4.226;2023-03-17T02:06:09;11.80;99.90
20714;DHT22;10518;50.742;4.226;2023-03-17T02:08:35;11.90;99.90
20714;DHT22;10518;50.742;4.226;2023-03-17T02:11:02;11.90;99.90
20714;DHT22;10518;50.742;4.226;2023-03-17T02:13:29;11.80;99.90
20714;DHT22;10518;50.742;4.226;2023-03-17T02:15:56;11.70;99.90
20714;DHT22;10518;50.742;4.226;2023-03-17T02:18:22;11.70;99.90
20714;DHT22;10518;50.742;4.226;2023-03-17T02:23:23;11.80;99.90
20714;DHT22;10518;50.742;4.226;2023-03-17T02:25:50;11.70;99.90
20714;DHT22;10518;50.742;4.226;2023-03-17T02:28:27;11.60;99.90
20714;DHT22;10518;50.742;4.226;2023-03-17T02:30:54;11.80;99.90
20714;DHT22;10518;50.742;4.226;2023-03-17T02:33:20;11.60;99.90
20714;DHT22;10518;50.742;4.226;2023-03-17T02:35:45;11.70;99.90
20714;DHT22;10518;50.742;4.226;2023-03-17T02:38:12;11.70;99.90
20714;DHT22;10518;50.742;4.226;2023-03-17T02:40:37;11.50;99.90
20714;DHT22;10518;50.742;4.226;2023-03-17T02:43:03;11.40;99.90
20714;DHT22;10518;50.742;4.226;2023-03-17T02:45:30;11.00;99.90
20714;DHT22;10518;50.742;4.226;2023-03-17T02:47:56;11.10;99.90
20714;DHT22;10518;50.742;4.226;2023-03-17T02:50:25;11.20;99.90
20714;DHT22;10518;50.742;4.226;2023-03-17T02:52:52;11.40;99.90
20714;DHT22;10518;50.742;4.226;2023-03-17T02:55:17;11.40;99.90
20714;DHT22;10518;50.742;4.226;2023-03-17T02:57:43;11.30;99.90
20714;DHT22;10518;50.742;4.226;2023-03-17T03:00:09;11.20;99.90
20714;DHT22;10518;50.742;4.226;2023-03-17T03:02:39;11.20;99.90
20714;DHT22;10518;50.742;4.226;2023-03-17T03:05:06;11.00;99.90
20714;DHT22;10518;50.742;4.226;2023-03-17T03:07:33;10.90;99.90
20714;DHT22;10518;50.742;4.226;2023-03-17T03:09:58;10.80;99.90
20714;DHT22;10518;50.742;4.226;2023-03-17T03:12:24;11.00;99.90
20714;DHT22;10518;50.742;4.226;2023-03-17T03:14:50;10.80;99.90
20714;DHT22;10518;50.742;4.226;2023-03-17T03:17:16;10.60;99.90
20714;DHT22;10518;50.742;4.226;2023-03-17T03:19:42;10.70;99.90
20714;DHT22;10518;50.742;4.226;2023-03-17T03:22:08;11.00;99.90
20714;DHT22;10518;50.742;4.226;2023-03-17T03:24:34;10.90;99.90
20714;DHT22;10518;50.742;4.226;2023-03-17T03:27:00;10.80;99.90
20714;DHT22;10518;50.742;4.226;2023-03-17T03:29:26;10.80;99.90
20714;DHT22;10518;50.742;4.226;2023-03-17T03:31:52;10.60;99.90
20714;DHT22;10518;50.742;4.226;2023-03-17T03:34:17;10.60;99.90
20714;DHT22;10518;50.742;4.226;2023-03-17T03:36:43;10.90;99.90
20714;DHT22;10518;50.742;4.226;2023-03-17T03:39:09;11.00;99.90
20714;DHT22;10518;50.742;4.226;2023-03-17T03:41:35;10.90;99.90
20714;DHT22;10518;50.742;4.226;2023-03-17T03:44:00;10.90;99.90
20714;DHT22;10518;50.742;4.226;2023-03-17T03:46:26;10.70;99.90
20714;DHT22;10518;50.742;4.226;2023-03-17T03:48:53;10.70;99.90
20714;DHT22;10518;50.742;4.226;2023-03-17T03:51:19;10.60;99.90
20714;DHT22;10518;50.742;4.226;2023-03-17T03:53:45;10.60;99.90
20714;DHT22;10518;50.742;4.226;2023-03-17T03:56:12;10.80;99.90
20714;DHT22;10518;50.742;4.226;2023-03-17T03:58:38;11.20;99.90
20714;DHT22;10518;50.742;4.226;2023-03-17T04:01:08;11.30;99.90
20714;DHT22;10518;50.742;4.226;2023-03-17T04:03:37;11.10;99.90
20714;DHT22;10518;50.742;4.226;2023-03-17T04:06:03;10.80;99.90
20714;DHT22;10518;50.742;4.226;2023-03-17T04:08:29;10.70;99.90
20714;DHT22;10518;50.742;4.226;2023-03-17T04:10:56;10.70;99.90
20714;DHT22;10518;50.742;4.226;2023-03-17T04:13:21;10.60;99.90
20714;DHT22;10518;50.742;4.226;2023-03-17T04:15:47;10.60;99.90
20714;DHT22;10518;50.742;4.226;2023-03-17T04:18:12;10.40;99.90
20714;DHT22;10518;50.742;4.226;2023-03-17T04:20:38;10.30;99.90
20714;DHT22;10518;50.742;4.226;2023-03-17T04:23:04;10.30;99.90
20714;DHT22;10518;50.742;4.226;2023-03-17T04:25:30;10.50;99.90
20714;DHT22;10518;50.742;4.226;2023-03-17T04:27:56;10.50;99.90
20714;DHT22;10518;50.742;4.226;2023-03-17T04:30:22;10.50;99.90
20714;DHT22;10518;50.742;4.226;2023-03-17T04:32:48;10.40;99.90
20714;DHT22;10518;50.742;4.226;2023-03-17T04:35:16;10.40;99.90
20714;DHT22;10518;50.742;4.226;2023-03-17T04:37:42;10.30;99.90
20714;DHT22;10518;50.742;4.226;2023-03-17T04:40:08;10.50;99.90
20714;DHT22;10518;50.742;4.226;2023-03-17T04:42:35;10.50;99.90
20714;DHT22;10518;50.742;4.226;2023-03-17T04:45:03;10.30;99.90
20714;DHT22;10518;50.742;4.226;2023-03-17T04:47:29;10.30;99.90
20714;DHT22;10518;50.742;4.226;2023-03-17T04:49:54;10.20;99.90
20714;DHT22;10518;50.742;4.226;2023-03-17T04:52:20;10.40;99.90
20714;DHT22;10518;50.742;4.226;2023-03-17T04:54:45;10.20;99.90
20714;DHT22;10518;50.742;4.226;2023-03-17T04:57:11;9.90;99.90
20714;DHT22;10518;50.742;4.226;2023-03-17T04:59:36;9.70;99.90
20714;DHT22;10518;50.742;4.226;2023-03-17T05:02:02;9.60;99.90
20714;DHT22;10518;50.742;4.226;2023-03-17T05:04:28;9.50;99.90
20714;DHT22;10518;50.742;4.226;2023-03-17T05:06:53;9.50;99.90
20714;DHT22;10518;50.742;4.226;2023-03-17T05:09:19;9.40;99.90
20714;DHT22;10518;50.742;4.226;2023-03-17T05:11:45;9.40;99.90
20714;DHT22;10518;50.742;4.226;2023-03-17T05:14:11;9.40;99.90
20714;DHT22;10518;50.742;4.226;2023-03-17T05:16:36;9.50;99.90
20714;DHT22;10518;50.742;4.226;2023-03-17T05:19:02;9.40;99.90
20714;DHT22;10518;50.742;4.226;2023-03-17T05:21:28;9.40;99.90
20714;DHT22;10518;50.742;4.226;2023-03-17T05:23:53;9.40;99.90
20714;DHT22;10518;50.742;4.226;2023-03-17T05:26:20;9.60;99.90
20714;DHT22;10518;50.742;4.226;2023-03-17T05:28:45;9.70;99.90
20714;DHT22;10518;50.742;4.226;2023-03-17T05:31:12;9.70;99.90
20714;DHT22;10518;50.742;4.226;2023-03-17T05:33:38;9.60;99.90
20714;DHT22;10518;50.742;4.226;2023-03-17T05:36:04;9.80;99.90
20714;DHT22;10518;50.742;4.226;2023-03-17T05:38:29;9.80;99.90
20714;DHT22;10518;50.742;4.226;2023-03-17T05:40:55;9.70;99.90
20714;DHT22;10518;50.742;4.226;2023-03-17T05:43:21;9.60;99.90
20714;DHT22;10518;50.742;4.226;2023-03-17T05:45:46;9.60;99.90
20714;DHT22;10518;50.742;4.226;2023-03-17T05:48:15;9.90;99.90
20714;DHT22;10518;50.742;4.226;2023-03-17T05:50:41;9.90;99.90
20714;DHT22;10518;50.742;4.226;2023-03-17T05:53:07;9.70;99.90
20714;DHT22;10518;50.742;4.226;2023-03-17T05:55:33;9.80;99.90
20714;DHT22;10518;50.742;4.226;2023-03-17T05:57:58;9.60;99.90
20714;DHT22;10518;50.742;4.226;2023-03-17T06:00:25;9.60;99.90
20714;DHT22;10518;50.742;4.226;2023-03-17T06:02:53;9.60;99.90
20714;DHT22;10518;50.742;4.226;2023-03-17T06:05:18;9.70;99.90
20714;DHT22;10518;50.742;4.226;2023-03-17T06:07:44;9.80;99.90
20714;DHT22;10518;50.742;4.226;2023-03-17T06:10:11;9.80;99.90
20714;DHT22;10518;50.742;4.226;2023-03-17T06:12:36;9.80;99.90
20714;DHT22;10518;50.742;4.226;2023-03-17T06:15:02;9.80;99.90
20714;DHT22;10518;50.742;4.226;2023-03-17T06:17:28;9.80;99.90
20714;DHT22;10518;50.742;4.226;2023-03-17T06:19:53;9.80;99.90
20714;DHT22;10518;50.742;4.226;2023-03-17T06:22:19;9.80;99.90
20714;DHT22;10518;50.742;4.226;2023-03-17T06:24:45;10.00;99.90
20714;DHT22;10518;50.742;4.226;2023-03-17T06:27:10;10.20;99.90
20714;DHT22;10518;50.742;4.226;2023-03-17T06:29:37;10.30;99.90
20714;DHT22;10518;50.742;4.226;2023-03-17T06:32:03;10.30;99.90
20714;DHT22;10518;50.742;4.226;2023-03-17T06:34:29;10.40;99.90
20714;DHT22;10518;50.742;4.226;2023-03-17T06:36:55;10.60;99.90
20714;DHT22;10518;50.742;4.226;2023-03-17T06:39:21;10.80;99.90
20714;DHT22;10518;50.742;4.226;2023-03-17T06:41:47;11.00;99.90
20714;DHT22;10518;50.742;4.226;2023-03-17T06:44:12;10.90;99.90
20714;DHT22;10518;50.742;4.226;2023-03-17T06:46:38;10.80;99.90
20714;DHT22;10518;50.742;4.226;2023-03-17T06:49:04;11.10;99.90
20714;DHT22;10518;50.742;4.226;2023-03-17T06:51:30;11.20;99.90
20714;DHT22;10518;50.742;4.226;2023-03-17T06:53:57;11.30;99.90
20714;DHT22;10518;50.742;4.226;2023-03-17T06:56:22;11.50;99.90
20714;DHT22;10518;50.742;4.226;2023-03-17T06:58:48;11.50;99.90
20714;DHT22;10518;50.742;4.226;2023-03-17T07:01:13;11.50;99.90
20714;DHT22;10518;50.742;4.226;2023-03-17T07:03:40;11.60;99.90
20714;DHT22;10518;50.742;4.226;2023-03-17T07:06:06;11.40;99.90
20714;DHT22;10518;50.742;4.226;2023-03-17T07:08:33;11.80;99.90
20714;DHT22;10518;50.742;4.226;2023-03-17T07:10:59;12.00;99.90
20714;DHT22;10518;50.742;4.226;2023-03-17T07:13:25;12.20;99.90
20714;DHT22;10518;50.742;4.226;2023-03-17T07:15:51;12.30;99.90
20714;DHT22;10518;50.742;4.226;2023-03-17T07:18:18;12.50;99.90
20714;DHT22;10518;50.742;4.226;2023-03-17T07:20:44;12.60;99.90
20714;DHT22;10518;50.742;4.226;2023-03-17T07:23:17;12.40;99.90
20714;DHT22;10518;50.742;4.226;2023-03-17T07:25:44;12.60;99.90
20714;DHT22;10518;50.742;4.226;2023-03-17T07:28:11;12.90;99.90
20714;DHT22;10518;50.742;4.226;2023-03-17T07:30:37;12.90;99.90
20714;DHT22;10518;50.742;4.226;2023-03-17T07:33:03;13.00;99.90
20714;DHT22;10518;50.742;4.226;2023-03-17T07:35:29;13.30;99.90
20714;DHT22;10518;50.742;4.226;2023-03-17T07:37:56;13.60;99.90
20714;DHT22;10518;50.742;4.226;2023-03-17T07:40:21;13.50;99.90
20714;DHT22;10518;50.742;4.226;2023-03-17T07:42:48;13.40;99.90
20714;DHT22;10518;50.742;4.226;2023-03-17T07:45:14;13.80;99.90
20714;DHT22;10518;50.742;4.226;2023-03-17T07:47:40;13.70;99.90
20714;DHT22;10518;50.742;4.226;2023-03-17T07:50:06;14.10;99.90
20714;DHT22;10518;50.742;4.226;2023-03-17T07:52:32;14.30;99.90
20714;DHT22;10518;50.742;4.226;2023-03-17T07:54:58;14.60;99.90
20714;DHT22;10518;50.742;4.226;2023-03-17T07:57:24;14.50;99.90
20714;DHT22;10518;50.742;4.226;2023-03-17T07:59:49;14.50;99.90
20714;DHT22;10518;50.742;4.226;2023-03-17T08:02:16;14.30;99.90
20714;DHT22;10518;50.742;4.226;2023-03-17T08:04:43;14.20;99.90
20714;DHT22;10518;50.742;4.226;2023-03-17T08:07:09;14.20;99.90
20714;DHT22;10518;50.742;4.226;2023-03-17T08:09:35;14.20;99.90
20714;DHT22;10518;50.742;4.226;2023-03-17T08:12:02;14.30;99.90
20714;DHT22;10518;50.742;4.226;2023-03-17T08:14:28;14.30;99.90
20714;DHT22;10518;50.742;4.226;2023-03-17T08:16:54;14.30;99.90
20714;DHT22;10518;50.742;4.226;2023-03-17T08:19:21;14.30;99.90
20714;DHT22;10518;50.742;4.226;2023-03-17T08:21:47;14.20;99.90
20714;DHT22;10518;50.742;4.226;2023-03-17T08:24:12;14.20;99.90
20714;DHT22;10518;50.742;4.226;2023-03-17T08:26:38;14.20;99.90
20714;DHT22;10518;50.742;4.226;2023-03-17T08:29:03;14.40;99.90
20714;DHT22;10518;50.742;4.226;2023-03-17T08:31:29;14.30;99.90
20714;DHT22;10518;50.742;4.226;2023-03-17T08:33:55;14.10;99.90
20714;DHT22;10518;50.742;4.226;2023-03-17T08:36:22;14.10;99.90
20714;DHT22;10518;50.742;4.226;2023-03-17T08:38:48;14.10;99.90
20714;DHT22;10518;50.742;4.226;2023-03-17T08:41:17;14.20;99.90
20714;DHT22;10518;50.742;4.226;2023-03-17T08:43:44;14.20;99.90
20714;DHT22;10518;50.742;4.226;2023-03-17T08:46:15;14.20;99.90
20714;DHT22;10518;50.742;4.226;2023-03-17T08:48:41;14.30;99.90
20714;DHT22;10518;50.742;4.226;2023-03-17T08:51:07;14.40;99.90
20714;DHT22;10518;50.742;4.226;2023-03-17T08:53:34;14.70;99.90
20714;DHT22;10518;50.742;4.226;2023-03-17T08:56:00;14.50;99.90
20714;DHT22;10518;50.742;4.226;2023-03-17T08:58:26;14.70;99.90
20714;DHT22;10518;50.742;4.226;2023-03-17T09:00:53;14.60;99.90
20714;DHT22;10518;50.742;4.226;2023-03-17T09:03:19;14.70;99.90
20714;DHT22;10518;50.742;4.226;2023-03-17T09:05:46;14.50;99.90
20714;DHT22;10518;50.742;4.226;2023-03-17T09:08:11;14.40;99.90
20714;DHT22;10518;50.742;4.226;2023-03-17T09:10:37;14.80;99.90
20714;DHT22;10518;50.742;4.226;2023-03-17T09:13:03;14.70;99.90
20714;DHT22;10518;50.742;4.226;2023-03-17T09:15:30;14.80;99.90
20714;DHT22;10518;50.742;4.226;2023-03-17T09:17:56;14.90;99.90
20714;DHT22;10518;50.742;4.226;2023-03-17T09:20:22;15.20;99.90
20714;DHT22;10518;50.742;4.226;2023-03-17T09:22:48;15.20;99.90
20714;DHT22;10518;50.742;4.226;2023-03-17T09:25:14;15.00;99.90
20714;DHT22;10518;50.742;4.226;2023-03-17T09:27:40;15.00;99.90
20714;DHT22;10518;50.742;4.226;2023-03-17T09:30:07;14.80;99.90
20714;DHT22;10518;50.742;4.226;2023-03-17T09:32:35;14.60;99.90
20714;DHT22;10518;50.742;4.226;2023-03-17T09:35:01;14.50;99.90
20714;DHT22;10518;50.742;4.226;2023-03-17T09:37:28;14.70;99.90
20714;DHT22;10518;50.742;4.226;2023-03-17T09:39:53;15.00;99.90
20714;DHT22;10518;50.742;4.226;2023-03-17T09:50:47;15.90;99.90
20714;DHT22;10518;50.742;4.226;2023-03-17T09:53:22;16.20;99.90
20714;DHT22;10518;50.742;4.226;2023-03-17T09:55:51;16.10;99.90
20714;DHT22;10518;50.742;4.226;2023-03-17T09:58:23;16.20;99.90
20714;DHT22;10518;50.742;4.226;2023-03-17T10:00:52;15.90;99.90
20714;DHT22;10518;50.742;4.226;2023-03-17T10:03:18;16.10;99.90
20714;DHT22;10518;50.742;4.226;2023-03-17T10:05:44;16.70;99.90
20714;DHT22;10518;50.742;4.226;2023-03-17T10:08:32;17.00;99.90
20714;DHT22;10518;50.742;4.226;2023-03-17T10:11:06;17.00;99.90
20714;DHT22;10518;50.742;4.226;2023-03-17T10:16:56;17.50;99.90
20714;DHT22;10518;50.742;4.226;2023-03-17T10:19:34;17.90;99.90
20714;DHT22;10518;50.742;4.226;2023-03-17T10:24:38;17.60;99.90
20714;DHT22;10518;50.742;4.226;2023-03-17T10:27:10;17.70;99.90
20714;DHT22;10518;50.742;4.226;2023-03-17T10:29:39;17.70;99.90
20714;DHT22;10518;50.742;4.226;2023-03-17T10:32:11;17.90;99.90
20714;DHT22;10518;50.742;4.226;2023-03-17T10:34:38;17.80;99.90
20714;DHT22;10518;50.742;4.226;2023-03-17T10:37:07;18.10;99.90
20714;DHT22;10518;50.742;4.226;2023-03-17T10:42:24;18.20;99.90
20714;DHT22;10518;50.742;4.226;2023-03-17T10:45:25;18.20;99.90
20714;DHT22;10518;50.742;4.226;2023-03-17T10:47:54;18.50;99.90
20714;DHT22;10518;50.742;4.226;2023-03-17T10:50:27;18.70;99.90
20714;DHT22;10518;50.742;4.226;2023-03-17T10:52:57;18.90;99.90
20714;DHT22;10518;50.742;4.226;2023-03-17T10:55:27;18.60;99.90
20714;DHT22;10518;50.742;4.226;2023-03-17T10:58:09;18.70;99.90
20714;DHT22;10518;50.742;4.226;2023-03-17T11:00:38;18.70;99.90
20714;DHT22;10518;50.742;4.226;2023-03-17T11:03:19;18.80;99.90
20714;DHT22;10518;50.742;4.226;2023-03-17T11:06:04;18.80;99.90
20714;DHT22;10518;50.742;4.226;2023-03-17T11:11:29;19.70;99.90
20714;DHT22;10518;50.742;4.226;2023-03-17T11:14:10;20.20;99.90
20714;DHT22;10518;50.742;4.226;2023-03-17T11:19:14;19.80;99.90
20714;DHT22;10518;50.742;4.226;2023-03-17T11:24:43;19.80;99.90
20714;DHT22;10518;50.742;4.226;2023-03-17T11:27:34;19.70;99.90
20714;DHT22;10518;50.742;4.226;2023-03-17T11:32:50;20.10;99.90
20714;DHT22;10518;50.742;4.226;2023-03-17T11:38:29;20.40;99.90
20714;DHT22;10518;50.742;4.226;2023-03-17T11:49:35;20.60;99.90
20714;DHT22;10518;50.742;4.226;2023-03-17T11:55:18;20.70;99.90
20714;DHT22;10518;50.742;4.226;2023-03-17T11:57:55;20.60;99.90
20714;DHT22;10518;50.742;4.226;2023-03-17T12:00:34;20.60;99.90
20714;DHT22;10518;50.742;4.226;2023-03-17T12:06:05;20.40;99.90
20714;DHT22;10518;50.742;4.226;2023-03-17T12:08:49;20.60;99.90
20714;DHT22;10518;50.742;4.226;2023-03-17T12:11:25;20.50;99.90
20714;DHT22;10518;50.742;4.226;2023-03-17T12:14:00;20.40;99.90
20714;DHT22;10518;50.742;4.226;2023-03-17T12:16:49;20.50;99.90
20714;DHT22;10518;50.742;4.226;2023-03-17T12:19:32;20.70;99.90
20714;DHT22;10518;50.742;4.226;2023-03-17T12:24:52;20.20;99.90
20714;DHT22;10518;50.742;4.226;2023-03-17T12:27:29;20.10;99.90
20714;DHT22;10518;50.742;4.226;2023-03-17T12:35:53;20.40;99.90
20714;DHT22;10518;50.742;4.226;2023-03-17T12:38:21;20.20;99.90
20714;DHT22;10518;50.742;4.226;2023-03-17T12:44:10;20.50;99.90
20714;DHT22;10518;50.742;4.226;2023-03-17T12:47:07;20.20;99.90
20714;DHT22;10518;50.742;4.226;2023-03-17T12:52:46;20.20;99.90
20714;DHT22;10518;50.742;4.226;2023-03-17T12:55:23;19.90;99.90
20714;DHT22;10518;50.742;4.226;2023-03-17T12:58:20;20.20;99.90
20714;DHT22;10518;50.742;4.226;2023-03-17T13:03:35;20.40;99.90
20714;DHT22;10518;50.742;4.226;2023-03-17T13:06:06;20.10;99.90
20714;DHT22;10518;50.742;4.226;2023-03-17T13:08:41;19.90;99.90
20714;DHT22;10518;50.742;4.226;2023-03-17T13:16:49;19.90;99.90
20714;DHT22;10518;50.742;4.226;2023-03-17T13:27:12;20.30;99.90
20714;DHT22;10518;50.742;4.226;2023-03-17T13:29:42;20.30;99.90
20714;DHT22;10518;50.742;4.226;2023-03-17T13:34:51;20.20;99.90
20714;DHT22;10518;50.742;4.226;2023-03-17T13:37:43;20.10;99.90
20714;DHT22;10518;50.742;4.226;2023-03-17T13:40:30;20.00;99.90
20714;DHT22;10518;50.742;4.226;2023-03-17T13:48:40;20.20;99.90
20714;DHT22;10518;50.742;4.226;2023-03-17T13:51:17;20.20;99.90
20714;DHT22;10518;50.742;4.226;2023-03-17T13:53:48;20.20;99.90
20714;DHT22;10518;50.742;4.226;2023-03-17T14:01:37;21.00;99.90
20714;DHT22;10518;50.742;4.226;2023-03-17T14:04:15;20.80;99.90
20714;DHT22;10518;50.742;4.226;2023-03-17T14:06:42;20.40;99.90
20714;DHT22;10518;50.742;4.226;2023-03-17T14:09:24;20.30;99.90
20714;DHT22;10518;50.742;4.226;2023-03-17T14:11:53;20.40;99.90
20714;DHT22;10518;50.742;4.226;2023-03-17T14:17:01;20.50;99.90
20714;DHT22;10518;50.742;4.226;2023-03-17T14:19:29;20.60;99.90
20714;DHT22;10518;50.742;4.226;2023-03-17T14:22:02;20.70;99.90
20714;DHT22;10518;50.742;4.226;2023-03-17T14:24:31;20.70;99.90
20714;DHT22;10518;50.742;4.226;2023-03-17T14:26:57;20.70;99.90
20714;DHT22;10518;50.742;4.226;2023-03-17T14:29:30;21.00;99.90
20714;DHT22;10518;50.742;4.226;2023-03-17T14:32:09;20.80;99.90
20714;DHT22;10518;50.742;4.226;2023-03-17T14:34:43;20.90;99.90
20714;DHT22;10518;50.742;4.226;2023-03-17T14:37:10;20.80;99.90
20714;DHT22;10518;50.742;4.226;2023-03-17T14:39:49;20.60;99.90
20714;DHT22;10518;50.742;4.226;2023-03-17T14:42:27;20.60;99.90
20714;DHT22;10518;50.742;4.226;2023-03-17T14:45:17;20.70;99.90
20714;DHT22;10518;50.742;4.226;2023-03-17T14:47:43;20.80;99.90
20714;DHT22;10518;50.742;4.226;2023-03-17T14:50:16;20.90;99.90
20714;DHT22;10518;50.742;4.226;2023-03-17T14:52:43;21.00;99.90
20714;DHT22;10518;50.742;4.226;2023-03-17T14:55:13;21.00;99.90
20714;DHT22;10518;50.742;4.226;2023-03-17T14:57:38;20.50;99.90
20714;DHT22;10518;50.742;4.226;2023-03-17T15:00:26;20.40;99.90
20714;DHT22;10518;50.742;4.226;2023-03-17T15:02:56;20.60;99.90
20714;DHT22;10518;50.742;4.226;2023-03-17T15:05:37;21.00;99.90
20714;DHT22;10518;50.742;4.226;2023-03-17T15:08:37;20.80;99.90
20714;DHT22;10518;50.742;4.226;2023-03-17T15:11:04;20.40;99.90
20714;DHT22;10518;50.742;4.226;2023-03-17T15:13:36;19.90;99.90
20714;DHT22;10518;50.742;4.226;2023-03-17T15:18:44;19.90;99.90
20714;DHT22;10518;50.742;4.226;2023-03-17T15:23:53;19.40;99.90
20714;DHT22;10518;50.742;4.226;2023-03-17T15:26:21;19.70;99.90
20714;DHT22;10518;50.742;4.226;2023-03-17T15:28:47;19.50;99.90
20714;DHT22;10518;50.742;4.226;2023-03-17T15:31:12;19.50;99.90
20714;DHT22;10518;50.742;4.226;2023-03-17T15:33:40;19.50;99.90
20714;DHT22;10518;50.742;4.226;2023-03-17T15:36:13;19.70;99.90
20714;DHT22;10518;50.742;4.226;2023-03-17T15:38:39;19.70;99.90
20714;DHT22;10518;50.742;4.226;2023-03-17T15:41:05;19.40;99.90
20714;DHT22;10518;50.742;4.226;2023-03-17T15:43:30;19.20;99.90
20714;DHT22;10518;50.742;4.226;2023-03-17T15:46:00;18.80;99.90
20714;DHT22;10518;50.742;4.226;2023-03-17T15:48:27;19.10;99.90
20714;DHT22;10518;50.742;4.226;2023-03-17T15:50:55;19.10;99.90
20714;DHT22;10518;50.742;4.226;2023-03-17T15:53:22;18.90;99.90
20714;DHT22;10518;50.742;4.226;2023-03-17T15:55:48;19.00;99.90
20714;DHT22;10518;50.742;4.226;2023-03-17T15:58:14;19.30;99.90
20714;DHT22;10518;50.742;4.226;2023-03-17T16:00:40;19.30;99.90
20714;DHT22;10518;50.742;4.226;2023-03-17T16:03:28;18.80;99.90
20714;DHT22;10518;50.742;4.226;2023-03-17T16:05:54;18.90;99.90
20714;DHT22;10518;50.742;4.226;2023-03-17T16:08:20;18.90;99.90
20714;DHT22;10518;50.742;4.226;2023-03-17T16:10:46;18.70;99.90
20714;DHT22;10518;50.742;4.226;2023-03-17T16:13:11;18.70;99.90
20714;DHT22;10518;50.742;4.226;2023-03-17T16:15:39;18.70;99.90
20714;DHT22;10518;50.742;4.226;2023-03-17T16:18:11;18.70;99.90
20714;DHT22;10518;50.742;4.226;2023-03-17T16:20:43;18.60;99.90
20714;DHT22;10518;50.742;4.226;2023-03-17T16:23:20;18.50;99.90
20714;DHT22;10518;50.742;4.226;2023-03-17T16:25:47;18.40;99.90
20714;DHT22;10518;50.742;4.226;2023-03-17T16:28:16;18.20;99.90
20714;DHT22;10518;50.742;4.226;2023-03-17T16:30:42;18.00;99.90
20714;DHT22;10518;50.742;4.226;2023-03-17T16:33:27;17.80;99.90
20714;DHT22;10518;50.742;4.226;2023-03-17T16:35:58;17.90;99.90
20714;DHT22;10518;50.742;4.226;2023-03-17T16:38:30;18.10;99.90
20714;DHT22;10518;50.742;4.226;2023-03-17T16:41:00;18.10;99.90
20714;DHT22;10518;50.742;4.226;2023-03-17T16:43:32;18.10;99.90
20714;DHT22;10518;50.742;4.226;2023-03-17T16:46:01;18.00;99.90
20714;DHT22;10518;50.742;4.226;2023-03-17T16:48:28;18.10;99.90
20714;DHT22;10518;50.742;4.226;2023-03-17T16:50:54;18.00;99.90
20714;DHT22;10518;50.742;4.226;2023-03-17T16:53:20;18.00;99.90
20714;DHT22;10518;50.742;4.226;2023-03-17T16:55:46;17.80;99.90
20714;DHT22;10518;50.742;4.226;2023-03-17T16:58:28;17.60;99.90
20714;DHT22;10518;50.742;4.226;2023-03-17T17:01:01;17.50;99.90
20714;DHT22;10518;50.742;4.226;2023-03-17T17:03:30;17.50;99.90
20714;DHT22;10518;50.742;4.226;2023-03-17T17:05:56;17.60;99.90
20714;DHT22;10518;50.742;4.226;2023-03-17T17:08:22;17.60;99.90
20714;DHT22;10518;50.742;4.226;2023-03-17T17:10:47;17.70;99.90
20714;DHT22;10518;50.742;4.226;2023-03-17T17:13:13;17.80;99.90
20714;DHT22;10518;50.742;4.226;2023-03-17T17:15:39;17.70;99.90
20714;DHT22;10518;50.742;4.226;2023-03-17T17:18:10;17.90;99.90
20714;DHT22;10518;50.742;4.226;2023-03-17T17:20:38;17.90;99.90
20714;DHT22;10518;50.742;4.226;2023-03-17T17:23:04;17.90;99.90
20714;DHT22;10518;50.742;4.226;2023-03-17T17:25:30;17.70;99.90